Time;durP1;ratioP1;P1;durP2;ratioP2;P2;SDS_P1;SDS_P2;PMS_P1;PMS_P2;Temp;Humidity;BMP_temperature;BMP_pressure;BME280_temperature;BME280_humidity;BME280_pressure;Samples;Min_cycle;Max_cycle;Signal;HPM_P1;HPM_P2
2021/06/23 00:00:29;;;;;;;14.43;3.47;;;;;;;10.67;94.11;101820.44;5048800;28;20505;-75
2021/06/23 00:02:56;;;;;;;17.25;3.85;;;;;;;10.71;94.50;101821.03;5041335;28;20494;-78
2021/06/23 00:05:22;;;;;;;10.43;3.40;;;;;;;10.62;93.91;101806.03;5057238;28;20071;-75
2021/06/23 00:07:49;;;;;;;15.98;3.53;;;;;;;10.76;93.54;101825.94;5060127;28;20036;-77
2021/06/23 00:10:16;;;;;;;13.30;3.22;;;;;;;10.63;93.73;101819.03;5072155;28;20052;-76
2021/06/23 00:12:45;;;;;;;13.27;4.03;;;;;;;10.82;94.75;101842.03;5057737;28;20039;-78
2021/06/23 00:15:18;;;;;;;10.93;3.30;;;;;;;10.84;94.44;101855.84;5064386;28;20041;-77
2021/06/23 00:17:45;;;;;;;12.65;3.33;;;;;;;10.70;95.19;101840.38;5065885;28;20032;-76
2021/06/23 00:20:12;;;;;;;10.52;3.30;;;;;;;10.58;95.47;101834.28;5042677;28;20062;-77
2021/06/23 00:22:39;;;;;;;11.55;3.63;;;;;;;10.65;95.54;101838.09;5067376;28;20055;-74
2021/06/23 00:25:06;;;;;;;12.05;3.80;;;;;;;10.66;95.88;101845.03;5047392;28;20532;-74
2021/06/23 00:27:32;;;;;;;17.35;3.63;;;;;;;10.53;96.40;101836.47;5030437;28;20042;-76
2021/06/23 00:30:07;;;;;;;10.15;3.75;;;;;;;10.53;96.14;101839.06;5052207;28;20486;-75
2021/06/23 00:32:35;;;;;;;11.32;3.65;;;;;;;10.59;96.52;101835.97;5031780;28;20626;-75
2021/06/23 00:35:06;;;;;;;14.70;4.15;;;;;;;10.60;96.31;101852.53;5063108;28;20028;-73
2021/06/23 00:37:34;;;;;;;12.82;4.10;;;;;;;10.43;96.40;101804.84;5057569;28;20036;-76
2021/06/23 00:40:01;;;;;;;14.98;4.25;;;;;;;10.45;96.89;101791.59;5045416;28;20072;-76
2021/06/23 00:42:31;;;;;;;15.15;4.00;;;;;;;10.39;97.10;101794.72;5077294;28;20097;-77
2021/06/23 00:44:58;;;;;;;11.65;3.90;;;;;;;10.38;96.97;101787.78;5050672;28;20795;-74
2021/06/23 00:47:26;;;;;;;11.55;3.65;;;;;;;10.50;97.38;101823.56;5078161;28;20514;-75
2021/06/23 00:50:07;;;;;;;11.90;3.67;;;;;;;10.58;97.84;101820.34;5063556;28;20429;-74
2021/06/23 00:52:46;;;;;;;14.02;4.35;;;;;;;10.63;97.80;101812.94;5052032;28;20047;-76
2021/06/23 00:55:28;;;;;;;9.88;3.83;;;;;;;10.78;97.89;101819.63;5048137;28;20505;-75
2021/06/23 00:57:58;;;;;;;9.40;4.03;;;;;;;10.95;98.08;101830.56;5084326;28;20112;-76
2021/06/23 01:00:30;;;;;;;16.67;4.25;;;;;;;10.75;97.96;101785.72;5049492;28;20032;-76
2021/06/23 01:03:00;;;;;;;12.18;4.53;;;;;;;11.08;97.43;101837.34;5063104;28;20043;-74
2021/06/23 01:05:28;;;;;;;15.77;4.15;;;;;;;11.23;98.02;101839.69;5041208;28;20032;-76
2021/06/23 01:07:55;;;;;;;15.02;4.32;;;;;;;11.31;97.87;101837.28;5039439;28;20068;-77
2021/06/23 01:10:22;;;;;;;12.25;3.95;;;;;;;11.36;97.09;101853.50;5054704;28;20036;-75
2021/06/23 01:13:16;;;;;;;10.23;3.58;;;;;;;11.37;97.22;101843.81;5074555;28;20032;-75
2021/06/23 01:15:45;;;;;;;13.07;3.63;;;;;;;11.41;97.16;101838.16;5056113;28;20036;-75
2021/06/23 01:18:12;;;;;;;9.25;3.83;;;;;;;11.42;97.31;101831.16;5042176;28;20032;-75
2021/06/23 01:20:45;;;;;;;10.77;3.67;;;;;;;11.39;97.86;101823.50;5046940;28;20400;-75
2021/06/23 01:23:13;;;;;;;8.70;3.17;;;;;;;11.43;97.60;101823.16;5057916;28;20917;-74
2021/06/23 01:25:41;;;;;;;12.55;3.80;;;;;;;11.40;97.77;101817.31;5065922;28;20085;-75
2021/06/23 01:28:07;;;;;;;8.93;3.40;;;;;;;11.42;97.43;101824.09;5033492;28;20068;-74
2021/06/23 01:30:43;;;;;;;11.10;3.38;;;;;;;11.44;97.16;101816.09;5049639;28;20031;-77
2021/06/23 01:33:42;;;;;;;10.45;3.50;;;;;;;11.44;97.63;101821.34;5072655;28;20040;-76
2021/06/23 01:36:09;;;;;;;11.77;3.78;;;;;;;11.51;98.29;101817.25;5041235;28;20040;-76
2021/06/23 01:38:36;;;;;;;9.85;3.50;;;;;;;11.58;98.06;101817.56;5042730;28;20072;-76
2021/06/23 01:41:05;;;;;;;9.45;3.50;;;;;;;11.58;97.92;101821.03;5059368;28;20043;-76
2021/06/23 01:43:32;;;;;;;11.60;3.53;;;;;;;11.75;97.86;101831.94;5051018;28;20508;-74
2021/06/23 01:46:02;;;;;;;10.05;3.63;;;;;;;11.77;97.80;101835.28;5061504;28;20039;-77
2021/06/23 01:48:35;;;;;;;10.02;3.38;;;;;;;11.76;97.29;101834.44;5066032;28;20044;-74
2021/06/23 01:51:07;;;;;;;14.35;3.50;;;;;;;11.81;97.09;101848.06;5080243;28;20062;-76
2021/06/23 01:53:39;;;;;;;10.30;3.53;;;;;;;11.82;96.95;101849.69;5050203;28;20211;-75
2021/06/23 01:56:07;;;;;;;11.57;3.47;;;;;;;11.79;96.78;101830.72;5054862;28;20036;-76
2021/06/23 01:58:44;;;;;;;13.75;3.38;;;;;;;11.77;96.97;101827.38;5045972;28;20033;-76
2021/06/23 02:02:15;;;;;;;9.85;3.17;;;;;;;11.92;97.08;101848.97;5045987;28;20092;-76
2021/06/23 02:04:52;;;;;;;11.13;2.97;;;;;;;11.92;97.05;101851.59;4997089;28;20041;-86
2021/06/23 02:08:02;;;;;;;11.57;3.33;;;;;;;11.93;97.91;101856.75;5003896;28;20024;-87
2021/06/23 02:10:54;;;;;;;12.13;3.55;;;;;;;11.97;98.34;101860.78;4958424;28;20061;-85
2021/06/23 02:14:13;;;;;;;13.02;3.22;;;;;;;12.00;98.38;101867.59;5034844;28;20032;-86
2021/06/23 02:17:08;;;;;;;15.60;4.20;;;;;;;12.07;98.46;101879.25;5007516;28;20048;-85
2021/06/23 02:19:46;;;;;;;14.93;3.97;;;;;;;12.10;98.08;101886.88;5014722;28;20038;-87
2021/06/23 02:22:22;;;;;;;9.98;3.65;;;;;;;12.04;98.49;101882.16;5029515;28;20033;-88
2021/06/23 02:25:06;;;;;;;10.98;3.67;;;;;;;11.99;98.41;101874.63;5014375;28;20048;-85
2021/06/23 02:27:39;;;;;;;13.60;3.88;;;;;;;12.09;98.17;101869.41;5014664;28;20694;-83
2021/06/23 02:30:08;;;;;;;12.52;3.55;;;;;;;12.11;98.24;101871.94;5011086;28;20038;-83
2021/06/23 02:32:34;;;;;;;12.85;3.75;;;;;;;12.02;98.94;101866.50;4997698;28;20036;-83
2021/06/23 02:35:04;;;;;;;14.73;4.05;;;;;;;12.06;99.35;101878.41;5014217;28;20033;-83
2021/06/23 02:37:38;;;;;;;14.50;3.75;;;;;;;12.04;99.22;101872.44;5014229;28;20049;-84
2021/06/23 02:40:07;;;;;;;16.83;4.18;;;;;;;12.14;99.10;101884.81;5030306;28;20025;-87
2021/06/23 02:42:35;;;;;;;8.32;3.95;;;;;;;12.07;99.44;101876.59;5016447;28;20053;-85
2021/06/23 02:45:02;;;;;;;13.20;3.92;;;;;;;12.12;99.76;101882.31;5027396;28;20030;-84
2021/06/23 02:47:27;;;;;;;14.57;4.38;;;;;;;12.24;99.96;101883.06;5029917;28;20044;-85
2021/06/23 02:50:14;;;;;;;10.50;3.70;;;;;;;12.33;99.84;101886.75;5008821;28;20108;-83
2021/06/23 02:52:59;;;;;;;10.52;4.38;;;;;;;12.29;99.17;101890.59;5029233;28;20145;-86
2021/06/23 02:55:25;;;;;;;13.05;4.38;;;;;;;12.26;99.95;101892.53;5010828;28;20026;-87
2021/06/23 02:57:52;;;;;;;14.63;5.50;;;;;;;12.23;99.98;101889.31;4994106;28;20443;-83
2021/06/23 03:00:18;;;;;;;13.93;4.85;;;;;;;12.18;99.65;101883.59;5001866;28;20019;-84
2021/06/23 03:02:46;;;;;;;13.20;5.03;;;;;;;12.22;100.00;101885.88;4991951;28;20786;-86
2021/06/23 03:05:12;;;;;;;17.33;5.18;;;;;;;12.19;100.00;101890.53;5013659;28;20041;-84
2021/06/23 03:07:42;;;;;;;12.70;4.72;;;;;;;12.21;100.00;101893.88;5017531;28;20037;-81
2021/06/23 03:10:12;;;;;;;14.90;4.82;;;;;;;12.23;100.00;101903.28;5049386;28;20068;-86
2021/06/23 03:13:04;;;;;;;18.13;5.57;;;;;;;12.19;100.00;101911.59;5039951;28;20033;-86
2021/06/23 03:15:48;;;;;;;16.17;5.05;;;;;;;12.24;100.00;101912.88;5028210;28;20036;-86
2021/06/23 03:18:28;;;;;;;12.98;4.72;;;;;;;12.22;100.00;101911.31;5026382;28;20377;-80
2021/06/23 03:20:55;;;;;;;9.75;4.35;;;;;;;12.25;100.00;101924.22;5016244;28;20183;-84
2021/06/23 03:23:20;;;;;;;14.57;4.75;;;;;;;12.21;100.00;101918.38;5049972;28;20090;-84
2021/06/23 03:25:47;;;;;;;13.43;4.80;;;;;;;12.25;100.00;101930.31;5013892;28;20069;-82
2021/06/23 03:28:13;;;;;;;14.70;4.63;;;;;;;12.25;100.00;101932.94;5000837;28;20491;-85
2021/06/23 03:30:45;;;;;;;12.63;4.55;;;;;;;12.30;100.00;101931.72;5028219;28;20392;-87
2021/06/23 03:33:11;;;;;;;11.95;4.63;;;;;;;12.28;100.00;101942.34;5033094;28;20033;-85
2021/06/23 03:35:57;;;;;;;13.73;4.30;;;;;;;12.31;100.00;101936.84;5002811;28;20164;-86
2021/06/23 03:38:23;;;;;;;16.08;5.03;;;;;;;12.29;100.00;101944.03;5026022;28;20059;-84
2021/06/23 03:40:50;;;;;;;13.27;4.18;;;;;;;12.25;100.00;101927.69;5021503;28;20034;-87
2021/06/23 03:43:19;;;;;;;10.82;4.75;;;;;;;12.27;100.00;101945.97;5014644;28;20059;-83
2021/06/23 03:45:49;;;;;;;10.85;4.38;;;;;;;12.28;100.00;101937.09;5013587;28;20461;-85
2021/06/23 03:48:16;;;;;;;21.08;5.10;;;;;;;12.29;100.00;101937.94;5016101;28;20049;-84
2021/06/23 03:50:44;;;;;;;13.77;4.80;;;;;;;12.31;100.00;101946.53;5031961;28;20072;-82
2021/06/23 03:53:11;;;;;;;15.30;4.18;;;;;;;12.43;97.78;101945.50;5032179;28;20029;-84
2021/06/23 03:55:37;;;;;;;14.60;3.80;;;;;;;12.50;95.73;101945.84;5016235;28;20044;-86
2021/06/23 03:58:03;;;;;;;12.00;4.25;;;;;;;12.45;97.04;101946.19;5024827;28;20627;-85
2021/06/23 04:00:30;;;;;;;15.15;4.13;;;;;;;12.48;97.56;101948.59;5022571;28;20099;-85
2021/06/23 04:03:16;;;;;;;20.00;4.65;;;;;;;12.50;97.37;101946.66;5018916;28;20201;-85
2021/06/23 04:05:58;;;;;;;14.00;4.30;;;;;;;12.57;98.80;101952.25;5032372;28;20499;-82
2021/06/23 04:08:24;;;;;;;14.18;4.38;;;;;;;12.61;97.73;101951.03;5032463;28;20029;-84
2021/06/23 04:10:49;;;;;;;17.30;4.30;;;;;;;12.75;95.43;101948.06;5010779;28;20072;-84
2021/06/23 04:13:15;;;;;;;14.07;4.30;;;;;;;12.78;95.36;101954.84;5025591;28;20038;-84
2021/06/23 04:15:42;;;;;;;9.73;3.60;;;;;;;12.85;95.50;101956.81;5027483;28;20037;-83
2021/06/23 04:18:08;;;;;;;11.73;3.53;;;;;;;12.92;95.83;101953.66;5016198;28;20163;-84
2021/06/23 04:20:34;;;;;;;13.40;4.53;;;;;;;12.97;95.20;101948.81;5015624;28;20097;-85
2021/06/23 04:23:10;;;;;;;23.38;4.32;;;;;;;13.05;95.63;101951.63;5016500;28;20167;-82
2021/06/23 04:25:36;;;;;;;12.77;4.00;;;;;;;13.11;95.58;101942.34;5016584;28;20120;-85
2021/06/23 04:28:01;;;;;;;14.10;4.40;;;;;;;13.20;94.54;101937.13;5015851;28;20195;-84
2021/06/23 04:30:27;;;;;;;22.35;4.57;;;;;;;13.22;93.34;101940.47;4995870;28;20038;-84
2021/06/23 04:32:53;;;;;;;15.35;4.57;;;;;;;13.31;92.57;101938.00;5030888;28;20042;-83
2021/06/23 04:35:40;;;;;;;16.63;3.92;;;;;;;13.34;91.83;101935.13;5001641;28;20195;-85
2021/06/23 04:38:06;;;;;;;21.40;4.60;;;;;;;13.28;91.38;101933.81;4999657;28;20048;-85
2021/06/23 04:40:32;;;;;;;21.17;4.70;;;;;;;13.35;91.21;101937.59;5013741;28;20057;-86
2021/06/23 04:42:58;;;;;;;17.50;4.13;;;;;;;13.30;91.41;101921.38;5040332;28;20802;-85
2021/06/23 04:45:24;;;;;;;16.80;4.25;;;;;;;13.39;91.89;101941.66;5025612;28;20033;-85
2021/06/23 04:47:56;;;;;;;;;;;;;;;13.49;91.75;101948.75;5016138;28;20037;-86
2021/06/23 04:50:22;;;;;;;18.95;5.13;;;;;;;13.50;91.76;101959.13;5014461;28;20410;-83
2021/06/23 04:52:56;;;;;;;17.33;5.15;;;;;;;13.56;92.65;101955.13;5015980;28;20037;-84
2021/06/23 04:55:22;;;;;;;16.60;4.85;;;;;;;13.57;92.95;101954.97;5032078;28;20431;-85
2021/06/23 04:57:56;;;;;;;18.23;5.05;;;;;;;13.59;94.22;101950.41;5035425;28;20061;-86
2021/06/23 05:00:23;;;;;;;18.02;4.90;;;;;;;13.66;93.15;101957.78;5017805;28;20025;-84
2021/06/23 05:02:48;;;;;;;19.88;5.50;;;;;;;13.69;92.54;101957.50;5057065;28;20041;-86
2021/06/23 05:05:14;;;;;;;20.25;5.13;;;;;;;13.69;92.68;101960.13;5012764;28;20515;-86
2021/06/23 05:07:40;;;;;;;18.33;4.82;;;;;;;13.76;92.26;101966.53;5032555;28;20041;-85
2021/06/23 05:10:05;;;;;;;14.40;4.47;;;;;;;13.83;93.15;101970.28;5014468;28;20057;-86
2021/06/23 05:12:31;;;;;;;17.92;4.88;;;;;;;13.85;91.91;101964.88;5016807;28;20058;-85
2021/06/23 05:14:57;;;;;;;15.38;4.85;;;;;;;13.83;91.20;101970.28;5015779;28;20040;-87
2021/06/23 05:17:24;;;;;;;17.83;4.38;;;;;;;13.78;90.99;101970.69;5017046;28;20056;-86
2021/06/23 05:19:50;;;;;;;26.38;5.05;;;;;;;13.75;90.90;101984.16;5025629;28;20083;-88
2021/06/23 05:22:16;;;;;;;16.48;4.28;;;;;;;13.73;91.99;101965.00;5033502;28;20120;-83
2021/06/23 05:24:42;;;;;;;16.58;4.00;;;;;;;13.83;91.52;101971.09;5017257;28;20044;-85
2021/06/23 05:27:09;;;;;;;19.67;4.50;;;;;;;13.79;91.51;101953.06;5033119;28;20032;-84
2021/06/23 05:29:35;;;;;;;16.17;4.43;;;;;;;13.91;92.11;101964.31;4994724;28;20033;-83
2021/06/23 05:32:01;;;;;;;24.83;4.70;;;;;;;14.06;92.39;101970.00;5012450;28;20042;-84
2021/06/23 05:34:28;;;;;;;16.25;4.20;;;;;;;14.11;89.78;101979.19;5029149;28;20101;-77
2021/06/23 05:36:55;;;;;;;17.48;4.20;;;;;;;14.15;89.96;101975.28;5012093;28;20044;-82
2021/06/23 05:39:22;;;;;;;16.05;4.72;;;;;;;14.15;90.21;101983.19;4998058;28;20033;-85
2021/06/23 05:41:47;;;;;;;17.98;4.53;;;;;;;14.10;90.26;101981.94;5020014;28;20021;-83
2021/06/23 05:44:13;;;;;;;16.05;4.60;;;;;;;14.09;90.44;101985.53;5025343;28;20029;-85
2021/06/23 05:46:39;;;;;;;17.58;4.47;;;;;;;14.08;91.04;101981.25;5048459;28;20041;-85
2021/06/23 05:49:05;;;;;;;15.02;4.65;;;;;;;14.10;90.57;101981.94;5012127;28;20039;-86
2021/06/23 05:51:31;;;;;;;16.98;4.63;;;;;;;14.15;91.50;101982.38;5011658;28;20071;-84
2021/06/23 05:53:56;;;;;;;16.88;5.00;;;;;;;14.19;91.43;101965.28;5013427;28;20072;-85
2021/06/23 05:56:21;;;;;;;17.13;5.10;;;;;;;14.19;92.13;101965.28;5013202;28;20057;-83
2021/06/23 05:58:47;;;;;;;17.27;5.68;;;;;;;14.28;90.06;101969.72;5029583;28;20034;-84
2021/06/23 06:01:12;;;;;;;19.30;7.28;;;;;;;14.51;88.69;101977.31;5038372;28;20033;-84
2021/06/23 06:03:38;;;;;;;22.73;7.68;;;;;;;14.73;85.96;101987.59;5017735;28;20041;-83
2021/06/23 06:06:04;;;;;;;13.90;7.05;;;;;;;15.09;85.80;101981.63;5012378;28;20487;-81
2021/06/23 06:08:30;;;;;;;19.90;7.75;;;;;;;15.27;85.92;101998.34;5012491;28;20135;-84
2021/06/23 06:10:55;;;;;;;23.88;6.97;;;;;;;15.32;83.80;101984.69;5011648;28;20631;-85
2021/06/23 06:13:21;;;;;;;17.95;6.55;;;;;;;15.42;84.46;101984.66;5006585;28;20031;-85
2021/06/23 06:15:46;;;;;;;21.05;8.07;;;;;;;15.39;84.04;101991.06;5038879;28;20043;-82
2021/06/23 06:18:12;;;;;;;21.92;9.35;;;;;;;15.31;83.60;101994.44;5012228;28;20071;-81
2021/06/23 06:20:38;;;;;;;18.65;7.88;;;;;;;15.31;83.58;101994.44;5011501;28;20036;-83
2021/06/23 06:23:04;;;;;;;21.17;7.50;;;;;;;15.35;83.99;101998.47;5012645;28;20040;-86
2021/06/23 06:25:31;;;;;;;25.55;7.65;;;;;;;15.41;85.93;102006.75;5028673;28;20399;-84
2021/06/23 06:27:56;;;;;;;21.15;7.70;;;;;;;15.60;85.08;102008.50;5029055;28;20095;-82
2021/06/23 06:30:23;;;;;;;14.63;6.18;;;;;;;15.64;82.49;102012.50;5011666;28;20025;-83
2021/06/23 06:32:50;;;;;;;21.38;5.93;;;;;;;15.60;81.72;102022.53;5028606;28;20041;-83
2021/06/23 06:35:16;;;;;;;16.38;5.43;;;;;;;15.74;81.25;102027.34;5028585;28;20475;-85
2021/06/23 06:37:41;;;;;;;17.23;4.75;;;;;;;15.78;81.97;102027.88;5012216;28;20099;-81
2021/06/23 06:40:08;;;;;;;20.27;4.43;;;;;;;16.03;81.38;102028.09;5021427;28;20114;-84
2021/06/23 06:42:33;;;;;;;11.32;4.10;;;;;;;16.11;81.12;102026.38;5041173;28;20037;-84
2021/06/23 06:44:59;;;;;;;14.50;5.00;;;;;;;16.24;81.53;102041.06;5023308;28;20047;-85
2021/06/23 06:47:25;;;;;;;16.77;4.30;;;;;;;16.29;80.20;102044.91;5011830;28;20041;-84
2021/06/23 06:49:50;;;;;;;13.25;4.70;;;;;;;16.38;80.18;102035.19;5012499;28;20033;-84
2021/06/23 06:52:16;;;;;;;17.33;4.80;;;;;;;16.74;78.36;102035.97;5017206;28;20391;-84
2021/06/23 06:54:41;;;;;;;15.88;4.88;;;;;;;17.06;79.03;102039.00;5024011;28;20044;-85
2021/06/23 06:57:07;;;;;;;11.20;3.97;;;;;;;16.99;78.59;102022.06;5017043;28;20034;-85
2021/06/23 06:59:33;;;;;;;13.88;4.47;;;;;;;16.98;76.98;102031.84;4999334;28;20484;-83
2021/06/23 07:01:59;;;;;;;20.17;4.72;;;;;;;17.01;77.69;102036.84;5049931;28;20112;-86
2021/06/23 07:04:24;;;;;;;13.32;4.40;;;;;;;16.98;77.57;102031.00;5024379;28;20036;-88
2021/06/23 07:06:50;;;;;;;15.13;4.63;;;;;;;16.93;77.25;102024.38;5032463;28;20044;-85
2021/06/23 07:09:16;;;;;;;17.42;5.07;;;;;;;16.84;77.69;102017.34;5027159;28;20025;-86
2021/06/23 07:11:42;;;;;;;19.52;5.95;;;;;;;16.95;78.07;102028.66;5043604;28;20036;-84
2021/06/23 07:14:08;;;;;;;16.40;5.35;;;;;;;17.11;76.20;102023.47;5048248;28;20588;-84
2021/06/23 07:16:34;;;;;;;15.68;5.72;;;;;;;17.12;75.70;102025.09;5038865;28;20029;-85
2021/06/23 07:18:59;;;;;;;21.00;6.90;;;;;;;17.06;75.93;102026.56;5015794;28;20071;-85
2021/06/23 07:21:25;;;;;;;22.23;8.50;;;;;;;16.99;76.19;102030.00;5043218;28;20442;-84
2021/06/23 07:23:54;;;;;;;21.65;7.50;;;;;;;16.95;76.70;102029.50;5019199;28;20127;-85
2021/06/23 07:26:20;;;;;;;17.75;7.38;;;;;;;17.06;76.96;102031.03;5019371;28;20048;-84
2021/06/23 07:28:52;;;;;;;18.58;6.30;;;;;;;17.10;76.92;102024.44;5019299;28;20051;-87
2021/06/23 07:31:25;;;;;;;17.90;5.68;;;;;;;17.27;75.78;102028.00;4990581;28;20040;-85
2021/06/23 07:33:54;;;;;;;17.17;6.45;;;;;;;17.32;75.66;102021.22;5015453;28;20041;-85
2021/06/23 07:36:35;;;;;;;17.65;5.35;;;;;;;17.50;74.60;102022.97;5051182;28;20170;-87
2021/06/23 07:39:04;;;;;;;17.02;6.10;;;;;;;17.47;75.91;102026.75;5052031;28;20115;-86
2021/06/23 07:41:30;;;;;;;18.50;5.35;;;;;;;17.37;74.11;102026.06;5014932;28;20040;-85
2021/06/23 07:43:55;;;;;;;13.10;4.65;;;;;;;17.46;73.93;102030.41;5013981;28;20032;-85
2021/06/23 07:46:21;;;;;;;14.23;4.85;;;;;;;17.65;74.92;102029.31;5032184;28;20025;-84
2021/06/23 07:48:49;;;;;;;13.68;4.53;;;;;;;17.95;74.04;102037.69;5030158;28;20140;-83
2021/06/23 07:51:19;;;;;;;16.98;5.78;;;;;;;17.99;72.01;102041.69;5033102;28;20041;-82
2021/06/23 08:09:47;;;;;;;10.35;4.10;;;;;;;17.27;75.01;102050.06;5051751;28;20125;-86
2021/06/23 08:14:39;;;;;;;11.73;4.50;;;;;;;17.60;73.76;102062.63;5031136;28;20429;-80
2021/06/23 08:17:04;;;;;;;12.32;4.65;;;;;;;17.70;72.47;102055.34;5048128;28;20039;-84
2021/06/23 08:19:30;;;;;;;12.00;5.05;;;;;;;17.90;73.07;102056.75;5024528;28;20115;-86
2021/06/23 08:21:56;;;;;;;12.00;4.75;;;;;;;17.95;72.79;102060.72;5015043;28;20530;-86
2021/06/23 08:24:22;;;;;;;12.10;3.55;;;;;;;17.88;70.46;102056.06;5051043;28;20032;-85
2021/06/23 08:26:48;;;;;;;13.95;3.65;;;;;;;18.01;70.82;102057.44;5018268;28;20037;-86
2021/06/23 08:29:14;;;;;;;10.75;3.60;;;;;;;18.43;70.91;102059.94;5031936;28;20048;-84
2021/06/23 08:31:39;;;;;;;13.57;3.30;;;;;;;18.48;67.86;102049.66;5050453;28;20090;-85
2021/06/23 08:34:05;;;;;;;8.88;3.05;;;;;;;18.45;70.02;102060.59;5012557;28;20115;-85
2021/06/23 08:36:30;;;;;;;8.95;3.03;;;;;;;18.41;69.40;102050.50;5010496;28;20028;-85
2021/06/23 08:38:56;;;;;;;14.80;3.90;;;;;;;18.32;74.13;102060.28;5018229;28;20043;-85
2021/06/23 08:41:29;;;;;;;8.93;2.95;;;;;;;18.02;71.30;102045.81;5033757;28;20119;-85
2021/06/23 08:43:57;;;;;;;8.65;2.90;;;;;;;17.99;72.50;102046.97;5036385;28;20041;-84
2021/06/23 08:46:23;;;;;;;9.50;3.00;;;;;;;18.01;72.75;102046.81;5016458;28;20029;-85
2021/06/23 08:48:49;;;;;;;12.98;3.30;;;;;;;18.16;70.54;102057.59;5019378;28;20033;-84
2021/06/23 08:51:14;;;;;;;10.60;2.63;;;;;;;18.19;74.11;102054.63;4999629;28;20035;-84
2021/06/23 08:53:41;;;;;;;16.20;3.28;;;;;;;18.22;72.01;102057.78;5025918;28;20045;-85
2021/06/23 08:56:07;;;;;;;15.50;3.30;;;;;;;18.67;68.55;102056.44;5015838;28;20044;-84
2021/06/23 08:58:33;;;;;;;10.35;2.63;;;;;;;19.24;67.19;102044.84;5034433;28;20033;-86
2021/06/23 09:00:59;;;;;;;14.07;2.90;;;;;;;19.70;64.61;102049.47;5014336;28;20112;-86
2021/06/23 09:03:25;;;;;;;10.98;2.85;;;;;;;19.29;65.96;102062.97;5008478;28;20108;-85
2021/06/23 09:05:55;;;;;;;11.32;2.58;;;;;;;19.05;68.75;102055.91;5024630;28;20397;-85
2021/06/23 09:08:30;;;;;;;10.68;2.80;;;;;;;19.06;72.36;102057.56;5041589;28;20033;-84
2021/06/23 09:10:55;;;;;;;8.75;2.92;;;;;;;19.43;67.77;102056.91;5016205;28;20082;-88
2021/06/23 09:13:21;;;;;;;12.85;2.80;;;;;;;19.83;66.92;102060.41;5044261;28;20032;-85
2021/06/23 09:15:59;;;;;;;11.95;3.00;;;;;;;20.35;65.23;102060.72;5024491;28;20204;-87
2021/06/23 09:18:30;;;;;;;9.70;2.95;;;;;;;20.61;64.00;102077.16;5013448;28;20065;-83
2021/06/23 09:21:04;;;;;;;9.85;2.65;;;;;;;20.68;60.63;102066.63;4995913;28;20041;-83
2021/06/23 09:23:57;;;;;;;9.60;2.33;;;;;;;20.96;62.92;102060.66;5032015;28;20158;-85
2021/06/23 09:26:27;;;;;;;7.72;2.05;;;;;;;21.29;58.53;102060.28;5017469;28;20037;-81
2021/06/23 09:29:11;;;;;;;10.43;2.28;;;;;;;21.00;61.71;102064.59;5033401;28;20528;-81
2021/06/23 09:31:50;;;;;;;9.45;2.53;;;;;;;20.64;60.92;102056.47;4993430;28;20713;-80
2021/06/23 09:34:39;;;;;;;11.20;2.70;;;;;;;20.49;62.73;102059.91;5033054;28;20569;-82
2021/06/23 09:37:29;;;;;;;10.27;2.95;;;;;;;19.91;64.01;102056.03;5013044;28;20045;-83
2021/06/23 09:40:13;;;;;;;12.00;2.20;;;;;;;19.59;63.53;102055.19;5036778;28;20044;-85
2021/06/23 09:42:50;;;;;;;7.95;2.10;;;;;;;19.37;66.05;102057.63;5021324;28;20079;-82
2021/06/23 09:45:17;;;;;;;9.02;2.55;;;;;;;19.23;64.67;102059.19;4997696;28;20048;-84
2021/06/23 09:47:46;;;;;;;9.80;2.30;;;;;;;19.21;63.90;102057.66;5018821;28;20044;-86
2021/06/23 09:50:22;;;;;;;7.78;2.17;;;;;;;19.52;63.32;102052.41;5037742;28;20041;-84
2021/06/23 09:53:08;;;;;;;6.57;2.25;;;;;;;20.27;60.35;102055.44;5014016;28;20734;-87
2021/06/23 09:55:40;;;;;;;6.70;2.30;;;;;;;20.05;60.61;102068.59;5024027;28;20044;-85
2021/06/23 09:58:24;;;;;;;7.93;2.30;;;;;;;19.55;62.11;102049.41;5010743;28;20510;-85
2021/06/23 10:00:57;;;;;;;7.57;2.10;;;;;;;19.29;62.56;102054.16;5007049;28;20169;-84
2021/06/23 10:03:24;;;;;;;9.48;1.98;;;;;;;19.49;62.36;102054.56;4987844;28;20119;-79
2021/06/23 10:05:49;;;;;;;8.38;1.95;;;;;;;19.87;61.58;102044.06;5012840;28;20040;-82
2021/06/23 10:08:30;;;;;;;10.82;2.20;;;;;;;19.93;58.63;102040.69;5020157;28;20034;-83
2021/06/23 10:10:55;;;;;;;7.78;1.83;;;;;;;19.69;61.43;102039.00;5033367;28;20033;-84
2021/06/23 10:13:21;;;;;;;7.47;1.92;;;;;;;19.63;61.05;102043.19;5026239;28;20029;-82
2021/06/23 10:15:48;;;;;;;8.70;2.10;;;;;;;19.73;62.53;102048.34;5028590;28;20427;-83
2021/06/23 10:18:17;;;;;;;4.53;1.95;;;;;;;19.61;64.10;102034.56;4996455;28;20044;-83
2021/06/23 10:20:43;;;;;;;4.20;1.75;;;;;;;19.59;61.76;102041.88;5011106;28;20033;-89
2021/06/23 10:23:10;;;;;;;4.85;1.65;;;;;;;19.52;61.98;102035.59;5028605;28;20040;-86
2021/06/23 10:25:37;;;;;;;4.60;1.65;;;;;;;19.64;59.68;102043.00;5011912;28;20049;-81
2021/06/23 10:28:03;;;;;;;7.18;2.00;;;;;;;19.76;60.75;102042.63;4995831;28;20045;-86
2021/06/23 10:30:30;;;;;;;8.25;1.92;;;;;;;19.61;57.61;102043.38;4991875;28;20207;-83
2021/06/23 10:32:57;;;;;;;5.40;1.70;;;;;;;19.40;61.51;102041.31;5003790;28;20108;-85
2021/06/23 10:35:23;;;;;;;9.43;2.10;;;;;;;19.48;62.32;102044.91;5009060;28;20037;-85
2021/06/23 10:37:51;;;;;;;4.93;1.88;;;;;;;19.80;59.74;102047.44;5012751;28;20045;-85
2021/06/23 10:40:18;;;;;;;8.75;2.20;;;;;;;20.07;59.55;102044.44;5014767;28;20034;-81
2021/06/23 10:42:44;;;;;;;6.68;1.83;;;;;;;20.25;59.33;102041.47;5010926;28;20264;-82
2021/06/23 10:45:11;;;;;;;7.43;2.00;;;;;;;20.82;57.31;102048.97;5013349;28;20045;-82
2021/06/23 10:47:42;;;;;;;7.28;2.28;;;;;;;20.66;54.81;102057.13;5031152;28;20124;-82
2021/06/23 10:50:16;;;;;;;6.85;2.13;;;;;;;20.43;54.68;102044.66;5014385;28;20372;-83
2021/06/23 10:52:44;;;;;;;7.90;2.17;;;;;;;20.25;56.03;102046.78;5048273;28;20052;-83
2021/06/23 10:55:21;;;;;;;9.15;2.47;;;;;;;20.03;55.69;102055.44;4997040;28;20076;-81
2021/06/23 10:57:52;;;;;;;10.20;2.40;;;;;;;19.99;56.67;102054.16;5028264;28;20045;-83
2021/06/23 11:00:17;;;;;;;7.20;2.33;;;;;;;20.30;60.60;102055.91;5011853;28;20041;-81
2021/06/23 11:02:49;;;;;;;6.35;2.00;;;;;;;20.38;57.21;102063.00;5030604;28;20121;-84
2021/06/23 11:05:17;;;;;;;7.55;2.17;;;;;;;20.29;57.61;102067.59;5011542;28;20045;-84
2021/06/23 11:07:47;;;;;;;7.43;2.30;;;;;;;20.32;58.10;102067.22;5036490;28;20040;-82
2021/06/23 11:10:12;;;;;;;7.28;2.17;;;;;;;20.26;53.22;102067.13;5001238;28;20038;-82
2021/06/23 11:12:50;;;;;;;7.43;2.40;;;;;;;20.13;57.32;102071.19;5011773;28;20048;-85
2021/06/23 11:15:16;;;;;;;4.85;2.17;;;;;;;20.05;64.16;102067.78;5031564;28;20614;-84
2021/06/23 11:17:43;;;;;;;9.85;2.25;;;;;;;19.93;58.97;102062.84;5029195;28;20045;-83
2021/06/23 11:20:21;;;;;;;5.70;1.88;;;;;;;19.81;65.60;102072.22;5011202;28;20038;-83
2021/06/23 11:22:47;;;;;;;8.00;2.00;;;;;;;19.78;67.13;102073.41;5003516;28;20142;-84
2021/06/23 11:25:23;;;;;;;8.32;2.50;;;;;;;19.94;59.29;102079.66;5010012;28;20545;-81
2021/06/23 11:28:07;;;;;;;7.95;2.47;;;;;;;19.81;58.96;102078.38;5013498;28;20064;-84
2021/06/23 11:30:33;;;;;;;12.30;2.13;;;;;;;19.76;59.35;102082.56;5008587;28;20423;-85
2021/06/23 11:33:28;;;;;;;4.65;1.90;;;;;;;19.65;60.16;102084.59;5032853;28;20369;-85
2021/06/23 11:35:54;;;;;;;6.93;2.28;;;;;;;19.61;57.56;102087.78;5016335;28;20132;-83
2021/06/23 11:38:20;;;;;;;7.70;2.53;;;;;;;19.61;57.86;102080.63;5031977;28;20040;-86
2021/06/23 11:40:46;;;;;;;6.43;2.10;;;;;;;19.71;59.90;102075.09;4998366;28;20831;-84
2021/06/23 11:43:11;;;;;;;8.80;1.73;;;;;;;19.82;63.68;102080.06;4980566;28;20103;-85
2021/06/23 11:45:37;;;;;;;5.53;2.00;;;;;;;19.89;64.72;102072.19;5015876;28;20036;-87
2021/06/23 11:48:03;;;;;;;6.10;2.10;;;;;;;19.97;63.60;102073.97;5024000;28;20072;-85
2021/06/23 11:50:28;;;;;;;7.00;2.53;;;;;;;20.01;61.30;102068.13;5026904;28;20495;-78